sensor_id;sensor_type;location;lat;lon;timestamp;P1;durP1;ratioP1;P2;durP2;ratioP2
31210;SDS011;17836;50.948;3.946;2023-07-13T00:00:05;3.80;;;1.37;;
31210;SDS011;17836;50.948;3.946;2023-07-13T00:02:35;7.57;;;1.70;;
31210;SDS011;17836;50.948;3.946;2023-07-13T00:05:00;5.47;;;1.73;;
31210;SDS011;17836;50.948;3.946;2023-07-13T00:07:25;5.65;;;1.73;;
31210;SDS011;17836;50.948;3.946;2023-07-13T00:09:51;6.72;;;2.00;;
31210;SDS011;17836;50.948;3.946;2023-07-13T00:12:27;5.35;;;1.50;;
31210;SDS011;17836;50.948;3.946;2023-07-13T00:14:56;7.45;;;1.60;;
31210;SDS011;17836;50.948;3.946;2023-07-13T00:17:25;6.70;;;1.90;;
31210;SDS011;17836;50.948;3.946;2023-07-13T00:19:50;5.18;;;1.67;;
31210;SDS011;17836;50.948;3.946;2023-07-13T00:22:16;6.82;;;2.17;;
31210;SDS011;17836;50.948;3.946;2023-07-13T00:24:43;4.57;;;1.85;;
31210;SDS011;17836;50.948;3.946;2023-07-13T00:27:08;7.07;;;2.00;;
31210;SDS011;17836;50.948;3.946;2023-07-13T00:29:34;8.25;;;1.98;;
31210;SDS011;17836;50.948;3.946;2023-07-13T00:31:59;7.05;;;2.08;;
31210;SDS011;17836;50.948;3.946;2023-07-13T00:34:25;8.80;;;2.70;;
31210;SDS011;17836;50.948;3.946;2023-07-13T00:36:51;9.10;;;2.03;;
31210;SDS011;17836;50.948;3.946;2023-07-13T00:39:16;6.73;;;2.30;;
31210;SDS011;17836;50.948;3.946;2023-07-13T00:41:41;8.40;;;2.90;;
31210;SDS011;17836;50.948;3.946;2023-07-13T00:44:11;10.68;;;2.35;;
31210;SDS011;17836;50.948;3.946;2023-07-13T00:46:38;10.20;;;2.58;;
31210;SDS011;17836;50.948;3.946;2023-07-13T00:49:04;11.23;;;2.07;;
31210;SDS011;17836;50.948;3.946;2023-07-13T00:51:37;10.30;;;2.08;;
31210;SDS011;17836;50.948;3.946;2023-07-13T00:54:05;12.93;;;2.30;;
31210;SDS011;17836;50.948;3.946;2023-07-13T00:56:33;7.70;;;2.38;;
31210;SDS011;17836;50.948;3.946;2023-07-13T00:58:59;4.25;;;1.63;;
31210;SDS011;17836;50.948;3.946;2023-07-13T01:01:28;5.60;;;2.25;;
31210;SDS011;17836;50.948;3.946;2023-07-13T01:03:54;7.72;;;2.05;;
31210;SDS011;17836;50.948;3.946;2023-07-13T01:06:19;7.05;;;1.85;;
31210;SDS011;17836;50.948;3.946;2023-07-13T01:08:44;6.43;;;2.37;;
31210;SDS011;17836;50.948;3.946;2023-07-13T01:11:10;10.77;;;2.17;;
31210;SDS011;17836;50.948;3.946;2023-07-13T01:13:35;5.40;;;1.90;;
31210;SDS011;17836;50.948;3.946;2023-07-13T01:16:04;10.15;;;2.42;;
31210;SDS011;17836;50.948;3.946;2023-07-13T01:18:30;10.07;;;2.22;;
31210;SDS011;17836;50.948;3.946;2023-07-13T01:21:02;10.30;;;2.40;;
31210;SDS011;17836;50.948;3.946;2023-07-13T01:23:28;7.97;;;2.33;;
31210;SDS011;17836;50.948;3.946;2023-07-13T01:25:56;9.88;;;2.53;;
31210;SDS011;17836;50.948;3.946;2023-07-13T01:28:22;6.78;;;2.88;;
31210;SDS011;17836;50.948;3.946;2023-07-13T01:30:52;12.27;;;3.45;;
31210;SDS011;17836;50.948;3.946;2023-07-13T01:33:20;7.70;;;2.20;;
31210;SDS011;17836;50.948;3.946;2023-07-13T01:35:45;9.67;;;2.67;;
31210;SDS011;17836;50.948;3.946;2023-07-13T01:38:13;13.55;;;2.72;;
31210;SDS011;17836;50.948;3.946;2023-07-13T01:40:38;8.30;;;3.03;;
31210;SDS011;17836;50.948;3.946;2023-07-13T01:43:04;9.55;;;2.78;;
31210;SDS011;17836;50.948;3.946;2023-07-13T01:45:30;7.07;;;2.35;;
31210;SDS011;17836;50.948;3.946;2023-07-13T01:47:55;8.27;;;2.75;;
31210;SDS011;17836;50.948;3.946;2023-07-13T01:50:21;9.10;;;2.42;;
31210;SDS011;17836;50.948;3.946;2023-07-13T01:52:48;16.40;;;2.80;;
31210;SDS011;17836;50.948;3.946;2023-07-13T01:55:13;12.70;;;3.73;;
31210;SDS011;17836;50.948;3.946;2023-07-13T01:57:39;8.35;;;2.90;;
31210;SDS011;17836;50.948;3.946;2023-07-13T02:00:04;9.53;;;2.63;;
31210;SDS011;17836;50.948;3.946;2023-07-13T02:02:30;11.32;;;3.88;;
31210;SDS011;17836;50.948;3.946;2023-07-13T02:04:58;7.20;;;2.63;;
31210;SDS011;17836;50.948;3.946;2023-07-13T02:07:23;9.48;;;3.10;;
31210;SDS011;17836;50.948;3.946;2023-07-13T02:09:49;8.90;;;3.08;;
31210;SDS011;17836;50.948;3.946;2023-07-13T02:12:14;10.97;;;2.97;;
31210;SDS011;17836;50.948;3.946;2023-07-13T02:14:42;13.80;;;3.20;;
31210;SDS011;17836;50.948;3.946;2023-07-13T02:17:09;12.15;;;2.97;;
31210;SDS011;17836;50.948;3.946;2023-07-13T02:19:34;11.38;;;3.28;;
31210;SDS011;17836;50.948;3.946;2023-07-13T02:22:00;9.57;;;3.13;;
31210;SDS011;17836;50.948;3.946;2023-07-13T02:24:25;9.73;;;2.77;;
31210;SDS011;17836;50.948;3.946;2023-07-13T02:26:50;12.75;;;2.70;;
31210;SDS011;17836;50.948;3.946;2023-07-13T02:29:15;12.43;;;3.47;;
31210;SDS011;17836;50.948;3.946;2023-07-13T02:31:43;10.38;;;3.33;;
31210;SDS011;17836;50.948;3.946;2023-07-13T02:34:08;11.83;;;3.20;;
31210;SDS011;17836;50.948;3.946;2023-07-13T02:36:36;8.70;;;2.60;;
31210;SDS011;17836;50.948;3.946;2023-07-13T02:39:02;11.77;;;3.17;;
31210;SDS011;17836;50.948;3.946;2023-07-13T02:41:28;11.35;;;3.17;;
31210;SDS011;17836;50.948;3.946;2023-07-13T02:43:53;13.15;;;3.53;;
31210;SDS011;17836;50.948;3.946;2023-07-13T02:46:19;9.40;;;2.63;;
31210;SDS011;17836;50.948;3.946;2023-07-13T02:48:44;11.90;;;3.10;;
31210;SDS011;17836;50.948;3.946;2023-07-13T02:51:10;9.05;;;2.70;;
31210;SDS011;17836;50.948;3.946;2023-07-13T02:53:35;12.00;;;3.08;;
31210;SDS011;17836;50.948;3.946;2023-07-13T02:56:01;10.63;;;2.55;;
31210;SDS011;17836;50.948;3.946;2023-07-13T02:58:26;10.15;;;2.72;;
31210;SDS011;17836;50.948;3.946;2023-07-13T03:00:51;11.40;;;3.30;;
31210;SDS011;17836;50.948;3.946;2023-07-13T03:03:17;9.35;;;3.03;;
31210;SDS011;17836;50.948;3.946;2023-07-13T03:05:43;15.38;;;2.63;;
31210;SDS011;17836;50.948;3.946;2023-07-13T03:08:09;11.85;;;3.38;;
31210;SDS011;17836;50.948;3.946;2023-07-13T03:10:35;10.13;;;2.75;;
31210;SDS011;17836;50.948;3.946;2023-07-13T03:13:01;12.50;;;3.40;;
31210;SDS011;17836;50.948;3.946;2023-07-13T03:15:26;12.43;;;3.55;;
31210;SDS011;17836;50.948;3.946;2023-07-13T03:17:53;10.77;;;3.03;;
31210;SDS011;17836;50.948;3.946;2023-07-13T03:20:19;8.57;;;2.63;;
31210;SDS011;17836;50.948;3.946;2023-07-13T03:22:44;7.73;;;2.83;;
31210;SDS011;17836;50.948;3.946;2023-07-13T03:25:09;5.72;;;2.03;;
31210;SDS011;17836;50.948;3.946;2023-07-13T03:27:35;7.55;;;2.67;;
31210;SDS011;17836;50.948;3.946;2023-07-13T03:30:01;12.15;;;2.60;;
31210;SDS011;17836;50.948;3.946;2023-07-13T03:32:26;10.55;;;3.38;;
31210;SDS011;17836;50.948;3.946;2023-07-13T03:34:51;9.85;;;2.80;;
31210;SDS011;17836;50.948;3.946;2023-07-13T03:37:17;8.90;;;3.00;;
31210;SDS011;17836;50.948;3.946;2023-07-13T03:39:42;6.87;;;2.10;;
31210;SDS011;17836;50.948;3.946;2023-07-13T03:42:07;11.00;;;2.75;;
31210;SDS011;17836;50.948;3.946;2023-07-13T03:44:33;10.68;;;2.83;;
31210;SDS011;17836;50.948;3.946;2023-07-13T03:46:58;10.33;;;3.10;;
31210;SDS011;17836;50.948;3.946;2023-07-13T03:49:25;12.10;;;2.85;;
31210;SDS011;17836;50.948;3.946;2023-07-13T03:51:51;9.90;;;2.77;;
31210;SDS011;17836;50.948;3.946;2023-07-13T03:54:16;8.13;;;2.63;;
31210;SDS011;17836;50.948;3.946;2023-07-13T03:56:41;10.63;;;3.27;;
31210;SDS011;17836;50.948;3.946;2023-07-13T03:59:06;8.90;;;3.13;;
31210;SDS011;17836;50.948;3.946;2023-07-13T04:01:32;11.43;;;3.17;;
31210;SDS011;17836;50.948;3.946;2023-07-13T04:03:57;12.35;;;3.58;;
31210;SDS011;17836;50.948;3.946;2023-07-13T04:06:25;8.43;;;2.58;;
31210;SDS011;17836;50.948;3.946;2023-07-13T04:08:52;11.10;;;2.83;;
31210;SDS011;17836;50.948;3.946;2023-07-13T04:11:18;13.18;;;3.38;;
31210;SDS011;17836;50.948;3.946;2023-07-13T04:13:44;9.77;;;2.83;;
31210;SDS011;17836;50.948;3.946;2023-07-13T04:16:12;10.27;;;2.90;;
31210;SDS011;17836;50.948;3.946;2023-07-13T04:18:37;9.27;;;3.67;;
31210;SDS011;17836;50.948;3.946;2023-07-13T04:21:03;14.50;;;3.30;;
31210;SDS011;17836;50.948;3.946;2023-07-13T04:23:30;9.45;;;2.97;;
31210;SDS011;17836;50.948;3.946;2023-07-13T04:25:56;12.55;;;3.42;;
31210;SDS011;17836;50.948;3.946;2023-07-13T04:28:22;10.77;;;2.90;;
31210;SDS011;17836;50.948;3.946;2023-07-13T04:30:48;13.70;;;3.65;;
31210;SDS011;17836;50.948;3.946;2023-07-13T04:33:13;9.55;;;2.53;;
31210;SDS011;17836;50.948;3.946;2023-07-13T04:35:39;7.82;;;3.35;;
31210;SDS011;17836;50.948;3.946;2023-07-13T04:38:04;15.53;;;3.73;;
31210;SDS011;17836;50.948;3.946;2023-07-13T04:40:29;6.67;;;2.67;;
31210;SDS011;17836;50.948;3.946;2023-07-13T04:42:57;16.00;;;3.67;;
31210;SDS011;17836;50.948;3.946;2023-07-13T04:45:23;7.90;;;2.58;;
31210;SDS011;17836;50.948;3.946;2023-07-13T04:47:49;7.82;;;2.63;;
31210;SDS011;17836;50.948;3.946;2023-07-13T04:50:14;13.13;;;3.08;;
31210;SDS011;17836;50.948;3.946;2023-07-13T04:52:47;17.23;;;3.42;;
31210;SDS011;17836;50.948;3.946;2023-07-13T04:55:14;13.23;;;3.25;;
31210;SDS011;17836;50.948;3.946;2023-07-13T04:57:42;11.23;;;2.38;;
31210;SDS011;17836;50.948;3.946;2023-07-13T05:00:07;13.25;;;3.15;;
31210;SDS011;17836;50.948;3.946;2023-07-13T05:02:33;10.23;;;3.25;;
31210;SDS011;17836;50.948;3.946;2023-07-13T05:04:59;10.70;;;2.92;;
31210;SDS011;17836;50.948;3.946;2023-07-13T05:07:25;9.00;;;3.03;;
31210;SDS011;17836;50.948;3.946;2023-07-13T05:09:50;14.27;;;2.75;;
31210;SDS011;17836;50.948;3.946;2023-07-13T05:12:16;13.63;;;4.00;;
31210;SDS011;17836;50.948;3.946;2023-07-13T05:14:41;8.90;;;2.73;;
31210;SDS011;17836;50.948;3.946;2023-07-13T05:17:06;7.80;;;2.37;;
31210;SDS011;17836;50.948;3.946;2023-07-13T05:19:31;7.37;;;2.53;;
31210;SDS011;17836;50.948;3.946;2023-07-13T05:21:57;13.43;;;2.57;;
31210;SDS011;17836;50.948;3.946;2023-07-13T05:24:22;12.67;;;3.17;;
31210;SDS011;17836;50.948;3.946;2023-07-13T05:26:47;11.40;;;2.97;;
31210;SDS011;17836;50.948;3.946;2023-07-13T05:29:12;12.13;;;2.60;;
31210;SDS011;17836;50.948;3.946;2023-07-13T05:31:38;12.68;;;3.28;;
31210;SDS011;17836;50.948;3.946;2023-07-13T05:34:06;6.20;;;2.45;;
31210;SDS011;17836;50.948;3.946;2023-07-13T05:36:31;11.43;;;2.93;;
31210;SDS011;17836;50.948;3.946;2023-07-13T05:38:59;12.25;;;2.20;;
31210;SDS011;17836;50.948;3.946;2023-07-13T05:41:24;9.65;;;2.78;;
31210;SDS011;17836;50.948;3.946;2023-07-13T05:43:49;10.80;;;3.57;;
31210;SDS011;17836;50.948;3.946;2023-07-13T05:46:14;13.53;;;3.00;;
31210;SDS011;17836;50.948;3.946;2023-07-13T05:48:40;7.38;;;2.72;;
31210;SDS011;17836;50.948;3.946;2023-07-13T05:51:05;7.60;;;2.93;;
31210;SDS011;17836;50.948;3.946;2023-07-13T05:53:30;16.43;;;3.50;;
31210;SDS011;17836;50.948;3.946;2023-07-13T05:55:56;8.60;;;1.93;;
31210;SDS011;17836;50.948;3.946;2023-07-13T05:58:21;11.77;;;3.05;;
31210;SDS011;17836;50.948;3.946;2023-07-13T06:00:47;10.98;;;3.28;;
31210;SDS011;17836;50.948;3.946;2023-07-13T06:03:13;9.80;;;3.08;;
31210;SDS011;17836;50.948;3.946;2023-07-13T06:05:41;14.85;;;3.10;;
31210;SDS011;17836;50.948;3.946;2023-07-13T06:08:06;7.35;;;2.80;;
31210;SDS011;17836;50.948;3.946;2023-07-13T06:10:35;12.25;;;3.55;;
31210;SDS011;17836;50.948;3.946;2023-07-13T06:13:01;11.95;;;3.30;;
31210;SDS011;17836;50.948;3.946;2023-07-13T06:15:26;5.97;;;2.07;;
31210;SDS011;17836;50.948;3.946;2023-07-13T06:17:51;9.67;;;3.00;;
31210;SDS011;17836;50.948;3.946;2023-07-13T06:20:19;12.15;;;3.65;;
31210;SDS011;17836;50.948;3.946;2023-07-13T06:22:44;10.17;;;3.60;;
31210;SDS011;17836;50.948;3.946;2023-07-13T06:25:11;14.40;;;3.53;;
31210;SDS011;17836;50.948;3.946;2023-07-13T06:27:39;13.85;;;3.17;;
31210;SDS011;17836;50.948;3.946;2023-07-13T06:30:05;14.63;;;3.63;;
31210;SDS011;17836;50.948;3.946;2023-07-13T06:32:30;15.25;;;3.40;;
31210;SDS011;17836;50.948;3.946;2023-07-13T06:34:55;10.73;;;2.47;;
31210;SDS011;17836;50.948;3.946;2023-07-13T06:37:21;10.47;;;3.00;;
31210;SDS011;17836;50.948;3.946;2023-07-13T06:39:46;10.60;;;3.13;;
31210;SDS011;17836;50.948;3.946;2023-07-13T06:42:15;15.07;;;3.15;;
31210;SDS011;17836;50.948;3.946;2023-07-13T06:44:41;12.48;;;3.20;;
31210;SDS011;17836;50.948;3.946;2023-07-13T06:47:07;14.35;;;3.00;;
31210;SDS011;17836;50.948;3.946;2023-07-13T06:49:32;14.02;;;3.08;;
31210;SDS011;17836;50.948;3.946;2023-07-13T06:51:59;12.40;;;3.13;;
31210;SDS011;17836;50.948;3.946;2023-07-13T06:54:25;9.98;;;2.83;;
31210;SDS011;17836;50.948;3.946;2023-07-13T06:56:50;7.50;;;2.40;;
31210;SDS011;17836;50.948;3.946;2023-07-13T06:59:15;15.70;;;3.33;;
31210;SDS011;17836;50.948;3.946;2023-07-13T07:01:41;7.10;;;2.40;;
31210;SDS011;17836;50.948;3.946;2023-07-13T07:04:06;14.43;;;3.30;;
31210;SDS011;17836;50.948;3.946;2023-07-13T07:06:31;7.28;;;2.22;;
31210;SDS011;17836;50.948;3.946;2023-07-13T07:08:57;5.45;;;2.05;;
31210;SDS011;17836;50.948;3.946;2023-07-13T07:11:23;9.07;;;2.30;;
31210;SDS011;17836;50.948;3.946;2023-07-13T07:13:49;6.97;;;2.25;;
31210;SDS011;17836;50.948;3.946;2023-07-13T07:16:15;9.32;;;2.83;;
31210;SDS011;17836;50.948;3.946;2023-07-13T07:18:40;9.75;;;2.40;;
31210;SDS011;17836;50.948;3.946;2023-07-13T07:21:05;9.73;;;1.90;;
31210;SDS011;17836;50.948;3.946;2023-07-13T07:23:31;8.20;;;2.63;;
31210;SDS011;17836;50.948;3.946;2023-07-13T07:25:56;6.60;;;2.08;;
31210;SDS011;17836;50.948;3.946;2023-07-13T07:28:24;7.82;;;2.13;;
31210;SDS011;17836;50.948;3.946;2023-07-13T07:30:49;11.80;;;2.90;;
31210;SDS011;17836;50.948;3.946;2023-07-13T07:33:17;9.38;;;2.47;;
31210;SDS011;17836;50.948;3.946;2023-07-13T07:35:42;8.17;;;2.50;;
31210;SDS011;17836;50.948;3.946;2023-07-13T07:38:07;6.00;;;2.10;;
31210;SDS011;17836;50.948;3.946;2023-07-13T07:40:36;6.78;;;2.50;;
31210;SDS011;17836;50.948;3.946;2023-07-13T07:43:01;11.30;;;3.33;;
31210;SDS011;17836;50.948;3.946;2023-07-13T07:45:29;9.02;;;1.92;;
31210;SDS011;17836;50.948;3.946;2023-07-13T07:47:54;6.07;;;2.33;;
31210;SDS011;17836;50.948;3.946;2023-07-13T07:50:23;5.78;;;2.03;;
31210;SDS011;17836;50.948;3.946;2023-07-13T07:52:49;6.80;;;2.42;;
31210;SDS011;17836;50.948;3.946;2023-07-13T07:55:14;5.40;;;2.13;;
31210;SDS011;17836;50.948;3.946;2023-07-13T07:57:42;9.70;;;1.90;;
31210;SDS011;17836;50.948;3.946;2023-07-13T08:00:10;8.10;;;2.03;;
31210;SDS011;17836;50.948;3.946;2023-07-13T08:02:37;7.05;;;2.30;;
31210;SDS011;17836;50.948;3.946;2023-07-13T08:05:03;8.70;;;2.25;;
31210;SDS011;17836;50.948;3.946;2023-07-13T08:07:29;8.88;;;2.05;;
31210;SDS011;17836;50.948;3.946;2023-07-13T08:09:55;6.22;;;2.17;;
31210;SDS011;17836;50.948;3.946;2023-07-13T08:12:20;7.82;;;2.72;;
31210;SDS011;17836;50.948;3.946;2023-07-13T08:14:45;6.67;;;2.10;;
31210;SDS011;17836;50.948;3.946;2023-07-13T08:17:18;7.60;;;1.95;;
31210;SDS011;17836;50.948;3.946;2023-07-13T08:19:46;5.32;;;2.47;;
31210;SDS011;17836;50.948;3.946;2023-07-13T08:22:11;8.77;;;1.52;;
31210;SDS011;17836;50.948;3.946;2023-07-13T08:24:37;8.70;;;2.43;;
31210;SDS011;17836;50.948;3.946;2023-07-13T08:27:02;6.88;;;1.90;;
31210;SDS011;17836;50.948;3.946;2023-07-13T08:29:27;10.02;;;2.47;;
31210;SDS011;17836;50.948;3.946;2023-07-13T08:31:53;6.53;;;2.00;;
31210;SDS011;17836;50.948;3.946;2023-07-13T08:34:19;6.95;;;1.92;;
31210;SDS011;17836;50.948;3.946;2023-07-13T08:36:44;7.80;;;2.10;;
31210;SDS011;17836;50.948;3.946;2023-07-13T08:39:09;5.70;;;1.63;;
31210;SDS011;17836;50.948;3.946;2023-07-13T08:41:34;7.97;;;2.53;;
31210;SDS011;17836;50.948;3.946;2023-07-13T08:44:00;5.95;;;1.67;;
31210;SDS011;17836;50.948;3.946;2023-07-13T08:46:36;5.93;;;2.15;;
31210;SDS011;17836;50.948;3.946;2023-07-13T08:49:03;6.63;;;2.22;;
31210;SDS011;17836;50.948;3.946;2023-07-13T08:54:03;37.80;;;5.68;;
31210;SDS011;17836;50.948;3.946;2023-07-13T08:56:31;6.68;;;1.92;;
31210;SDS011;17836;50.948;3.946;2023-07-13T08:59:15;4.47;;;1.75;;
31210;SDS011;17836;50.948;3.946;2023-07-13T09:11:54;4.55;;;1.67;;
31210;SDS011;17836;50.948;3.946;2023-07-13T09:14:35;7.88;;;1.60;;
31210;SDS011;17836;50.948;3.946;2023-07-13T09:17:04;5.22;;;1.90;;
31210;SDS011;17836;50.948;3.946;2023-07-13T09:19:30;5.20;;;1.25;;
31210;SDS011;17836;50.948;3.946;2023-07-13T09:22:01;6.57;;;1.73;;
31210;SDS011;17836;50.948;3.946;2023-07-13T09:26:58;5.73;;;1.50;;
31210;SDS011;17836;50.948;3.946;2023-07-13T09:29:28;5.82;;;1.73;;
31210;SDS011;17836;50.948;3.946;2023-07-13T09:31:54;3.78;;;1.10;;
31210;SDS011;17836;50.948;3.946;2023-07-13T09:34:22;3.75;;;1.27;;
31210;SDS011;17836;50.948;3.946;2023-07-13T09:36:47;3.23;;;1.87;;
31210;SDS011;17836;50.948;3.946;2023-07-13T09:39:14;6.60;;;1.73;;
31210;SDS011;17836;50.948;3.946;2023-07-13T09:44:14;4.63;;;1.37;;
31210;SDS011;17836;50.948;3.946;2023-07-13T09:46:44;3.22;;;1.17;;
31210;SDS011;17836;50.948;3.946;2023-07-13T09:49:10;7.38;;;1.75;;
31210;SDS011;17836;50.948;3.946;2023-07-13T09:51:37;4.05;;;1.42;;
31210;SDS011;17836;50.948;3.946;2023-07-13T09:54:02;3.75;;;1.30;;
31210;SDS011;17836;50.948;3.946;2023-07-13T09:56:28;3.47;;;1.23;;
31210;SDS011;17836;50.948;3.946;2023-07-13T09:58:54;4.60;;;1.55;;
31210;SDS011;17836;50.948;3.946;2023-07-13T10:01:36;4.78;;;1.50;;
31210;SDS011;17836;50.948;3.946;2023-07-13T10:04:02;5.07;;;1.10;;
31210;SDS011;17836;50.948;3.946;2023-07-13T10:06:36;3.75;;;1.27;;
31210;SDS011;17836;50.948;3.946;2023-07-13T10:09:01;8.32;;;1.65;;
31210;SDS011;17836;50.948;3.946;2023-07-13T10:11:28;3.58;;;1.45;;
31210;SDS011;17836;50.948;3.946;2023-07-13T10:14:02;5.30;;;1.30;;
31210;SDS011;17836;50.948;3.946;2023-07-13T10:16:31;4.03;;;1.25;;
31210;SDS011;17836;50.948;3.946;2023-07-13T10:19:08;3.05;;;1.00;;
31210;SDS011;17836;50.948;3.946;2023-07-13T10:21:41;3.08;;;1.00;;
31210;SDS011;17836;50.948;3.946;2023-07-13T10:26:36;4.38;;;1.63;;
31210;SDS011;17836;50.948;3.946;2023-07-13T10:29:07;5.13;;;1.38;;
31210;SDS011;17836;50.948;3.946;2023-07-13T10:31:37;1.52;;;0.80;;
31210;SDS011;17836;50.948;3.946;2023-07-13T10:34:07;4.40;;;0.98;;
31210;SDS011;17836;50.948;3.946;2023-07-13T10:36:39;2.65;;;1.38;;
31210;SDS011;17836;50.948;3.946;2023-07-13T10:39:05;3.10;;;1.02;;
31210;SDS011;17836;50.948;3.946;2023-07-13T10:41:32;4.22;;;1.75;;
31210;SDS011;17836;50.948;3.946;2023-07-13T10:43:58;3.95;;;1.02;;
31210;SDS011;17836;50.948;3.946;2023-07-13T10:46:25;5.10;;;1.20;;
31210;SDS011;17836;50.948;3.946;2023-07-13T10:48:54;2.05;;;0.70;;
31210;SDS011;17836;50.948;3.946;2023-07-13T10:51:20;3.78;;;1.10;;
31210;SDS011;17836;50.948;3.946;2023-07-13T10:53:46;4.28;;;1.20;;
31210;SDS011;17836;50.948;3.946;2023-07-13T10:56:32;2.75;;;1.15;;
31210;SDS011;17836;50.948;3.946;2023-07-13T10:59:01;5.18;;;1.08;;
31210;SDS011;17836;50.948;3.946;2023-07-13T11:01:29;2.80;;;0.87;;
31210;SDS011;17836;50.948;3.946;2023-07-13T11:04:03;4.22;;;1.40;;
31210;SDS011;17836;50.948;3.946;2023-07-13T11:06:39;6.95;;;1.52;;
31210;SDS011;17836;50.948;3.946;2023-07-13T11:09:25;3.38;;;1.30;;
31210;SDS011;17836;50.948;3.946;2023-07-13T11:12:00;2.65;;;1.00;;
31210;SDS011;17836;50.948;3.946;2023-07-13T11:14:30;3.67;;;1.35;;
31210;SDS011;17836;50.948;3.946;2023-07-13T11:16:56;3.92;;;1.13;;
31210;SDS011;17836;50.948;3.946;2023-07-13T11:25:21;1.70;;;0.85;;
31210;SDS011;17836;50.948;3.946;2023-07-13T11:29:51;9.25;;;2.00;;
31210;SDS011;17836;50.948;3.946;2023-07-13T11:32:23;8.63;;;1.80;;
31210;SDS011;17836;50.948;3.946;2023-07-13T11:34:48;6.20;;;2.28;;
31210;SDS011;17836;50.948;3.946;2023-07-13T11:37:15;3.35;;;1.58;;
31210;SDS011;17836;50.948;3.946;2023-07-13T11:39:44;8.68;;;1.90;;
31210;SDS011;17836;50.948;3.946;2023-07-13T11:42:16;2.67;;;1.20;;
31210;SDS011;17836;50.948;3.946;2023-07-13T11:44:43;2.53;;;1.00;;
31210;SDS011;17836;50.948;3.946;2023-07-13T11:47:10;3.50;;;1.00;;
31210;SDS011;17836;50.948;3.946;2023-07-13T11:49:40;3.45;;;1.30;;
31210;SDS011;17836;50.948;3.946;2023-07-13T11:52:09;2.97;;;1.15;;
31210;SDS011;17836;50.948;3.946;2023-07-13T11:54:56;6.22;;;1.60;;
31210;SDS011;17836;50.948;3.946;2023-07-13T11:59:51;4.35;;;1.98;;
31210;SDS011;17836;50.948;3.946;2023-07-13T12:02:50;1.52;;;1.10;;
31210;SDS011;17836;50.948;3.946;2023-07-13T12:05:09;2.58;;;1.20;;
31210;SDS011;17836;50.948;3.946;2023-07-13T12:07:35;2.38;;;1.00;;
31210;SDS011;17836;50.948;3.946;2023-07-13T12:10:13;3.63;;;1.13;;
31210;SDS011;17836;50.948;3.946;2023-07-13T12:12:52;3.63;;;1.00;;
31210;SDS011;17836;50.948;3.946;2023-07-13T12:15:20;4.28;;;1.20;;
31210;SDS011;17836;50.948;3.946;2023-07-13T12:17:47;2.30;;;1.20;;
31210;SDS011;17836;50.948;3.946;2023-07-13T12:20:33;4.03;;;1.35;;
31210;SDS011;17836;50.948;3.946;2023-07-13T12:23:00;2.33;;;1.30;;
31210;SDS011;17836;50.948;3.946;2023-07-13T12:25:26;1.58;;;1.17;;
31210;SDS011;17836;50.948;3.946;2023-07-13T12:27:51;3.55;;;1.45;;
31210;SDS011;17836;50.948;3.946;2023-07-13T12:30:28;2.30;;;0.90;;
31210;SDS011;17836;50.948;3.946;2023-07-13T12:32:58;2.08;;;0.95;;
31210;SDS011;17836;50.948;3.946;2023-07-13T12:35:23;2.72;;;1.10;;
31210;SDS011;17836;50.948;3.946;2023-07-13T12:37:50;3.75;;;1.05;;
31210;SDS011;17836;50.948;3.946;2023-07-13T12:40:16;3.13;;;0.90;;
31210;SDS011;17836;50.948;3.946;2023-07-13T12:42:43;2.17;;;1.20;;
31210;SDS011;17836;50.948;3.946;2023-07-13T12:45:20;1.38;;;0.70;;
31210;SDS011;17836;50.948;3.946;2023-07-13T12:47:47;1.40;;;0.93;;
31210;SDS011;17836;50.948;3.946;2023-07-13T12:50:14;2.05;;;0.77;;
31210;SDS011;17836;50.948;3.946;2023-07-13T12:52:41;2.35;;;1.00;;
31210;SDS011;17836;50.948;3.946;2023-07-13T12:55:13;2.65;;;1.00;;
31210;SDS011;17836;50.948;3.946;2023-07-13T12:57:47;3.13;;;1.25;;
31210;SDS011;17836;50.948;3.946;2023-07-13T13:00:36;4.80;;;1.33;;
31210;SDS011;17836;50.948;3.946;2023-07-13T13:03:04;2.97;;;1.20;;
31210;SDS011;17836;50.948;3.946;2023-07-13T13:05:30;4.50;;;2.00;;
31210;SDS011;17836;50.948;3.946;2023-07-13T13:07:57;4.45;;;1.20;;
31210;SDS011;17836;50.948;3.946;2023-07-13T13:10:22;4.15;;;1.50;;
31210;SDS011;17836;50.948;3.946;2023-07-13T13:12:51;5.68;;;1.33;;
31210;SDS011;17836;50.948;3.946;2023-07-13T13:15:19;5.68;;;1.58;;
31210;SDS011;17836;50.948;3.946;2023-07-13T13:17:47;3.40;;;1.20;;
31210;SDS011;17836;50.948;3.946;2023-07-13T13:20:22;3.88;;;1.25;;
31210;SDS011;17836;50.948;3.946;2023-07-13T13:22:48;2.70;;;1.00;;
31210;SDS011;17836;50.948;3.946;2023-07-13T13:25:13;4.32;;;1.67;;
31210;SDS011;17836;50.948;3.946;2023-07-13T13:27:40;3.85;;;1.30;;
31210;SDS011;17836;50.948;3.946;2023-07-13T13:30:10;3.70;;;1.15;;
31210;SDS011;17836;50.948;3.946;2023-07-13T13:32:37;2.63;;;1.27;;
31210;SDS011;17836;50.948;3.946;2023-07-13T13:35:03;5.43;;;1.83;;
31210;SDS011;17836;50.948;3.946;2023-07-13T13:37:28;2.47;;;0.88;;
31210;SDS011;17836;50.948;3.946;2023-07-13T13:39:53;2.57;;;1.10;;
31210;SDS011;17836;50.948;3.946;2023-07-13T13:42:20;3.47;;;1.30;;
31210;SDS011;17836;50.948;3.946;2023-07-13T13:44:49;2.80;;;1.02;;
31210;SDS011;17836;50.948;3.946;2023-07-13T13:47:25;2.92;;;1.58;;
31210;SDS011;17836;50.948;3.946;2023-07-13T13:49:51;5.45;;;1.23;;
31210;SDS011;17836;50.948;3.946;2023-07-13T13:52:19;1.98;;;1.17;;
31210;SDS011;17836;50.948;3.946;2023-07-13T13:54:44;2.35;;;1.20;;
31210;SDS011;17836;50.948;3.946;2023-07-13T13:57:10;6.00;;;1.60;;
31210;SDS011;17836;50.948;3.946;2023-07-13T13:59:37;3.65;;;1.08;;
31210;SDS011;17836;50.948;3.946;2023-07-13T14:02:09;2.97;;;1.52;;
31210;SDS011;17836;50.948;3.946;2023-07-13T14:04:41;4.38;;;1.30;;
31210;SDS011;17836;50.948;3.946;2023-07-13T14:07:07;3.43;;;1.03;;
31210;SDS011;17836;50.948;3.946;2023-07-13T14:09:32;7.05;;;1.58;;
31210;SDS011;17836;50.948;3.946;2023-07-13T14:11:58;1.65;;;0.90;;
31210;SDS011;17836;50.948;3.946;2023-07-13T14:14:24;3.00;;;1.40;;
31210;SDS011;17836;50.948;3.946;2023-07-13T14:16:52;2.00;;;1.05;;
31210;SDS011;17836;50.948;3.946;2023-07-13T14:19:20;2.20;;;0.80;;
31210;SDS011;17836;50.948;3.946;2023-07-13T14:21:45;6.30;;;1.33;;
31210;SDS011;17836;50.948;3.946;2023-07-13T14:24:12;1.40;;;0.85;;
31210;SDS011;17836;50.948;3.946;2023-07-13T14:26:38;2.65;;;1.00;;
31210;SDS011;17836;50.948;3.946;2023-07-13T14:29:05;1.95;;;0.85;;
31210;SDS011;17836;50.948;3.946;2023-07-13T14:31:35;2.40;;;1.08;;
31210;SDS011;17836;50.948;3.946;2023-07-13T14:34:05;1.92;;;1.30;;
31210;SDS011;17836;50.948;3.946;2023-07-13T14:36:31;2.45;;;0.98;;
31210;SDS011;17836;50.948;3.946;2023-07-13T14:39:00;2.75;;;1.35;;
31210;SDS011;17836;50.948;3.946;2023-07-13T14:41:26;2.25;;;0.90;;
31210;SDS011;17836;50.948;3.946;2023-07-13T14:43:54;2.65;;;1.00;;
31210;SDS011;17836;50.948;3.946;2023-07-13T14:46:22;3.55;;;1.20;;
31210;SDS011;17836;50.948;3.946;2023-07-13T14:48:53;2.97;;;1.20;;
31210;SDS011;17836;50.948;3.946;2023-07-13T14:51:20;2.25;;;1.20;;
31210;SDS011;17836;50.948;3.946;2023-07-13T14:53:46;2.53;;;1.00;;
31210;SDS011;17836;50.948;3.946;2023-07-13T14:56:11;4.97;;;1.27;;
31210;SDS011;17836;50.948;3.946;2023-07-13T14:58:39;3.40;;;1.48;;
31210;SDS011;17836;50.948;3.946;2023-07-13T15:01:12;4.93;;;1.48;;
31210;SDS011;17836;50.948;3.946;2023-07-13T15:03:43;1.80;;;1.00;;
31210;SDS011;17836;50.948;3.946;2023-07-13T15:06:10;1.20;;;1.02;;
31210;SDS011;17836;50.948;3.946;2023-07-13T15:08:36;14.35;;;1.55;;
31210;SDS011;17836;50.948;3.946;2023-07-13T15:11:06;3.78;;;1.17;;
31210;SDS011;17836;50.948;3.946;2023-07-13T15:13:31;2.13;;;0.95;;